Time;durP1;ratioP1;P1;durP2;ratioP2;P2;SDS_P1;SDS_P2;PMS_P1;PMS_P2;Temp;Humidity;BMP_temperature;BMP_pressure;BME280_temperature;BME280_humidity;BME280_pressure;Samples;Min_cycle;Max_cycle;Signal;HPM_P1;HPM_P2
2021/06/23 00:00:34;;;;;;;9.80;3.33;;;;;;;29.74;37.94;99434.78;1718869;81;21060;-42
2021/06/23 00:03:03;;;;;;;7.65;3.20;;;;;;;29.79;37.87;99431.06;1727184;79;21525;-42
2021/06/23 00:05:31;;;;;;;7.70;2.90;;;;;;;29.84;37.79;99428.64;1780657;79;37529;-41
2021/06/23 00:07:59;;;;;;;14.20;3.42;;;;;;;29.89;37.69;99430.34;1770072;79;21069;-42
2021/06/23 00:10:26;;;;;;;11.60;2.85;;;;;;;29.93;37.58;99434.36;1725134;80;22200;-42
2021/06/23 00:12:53;;;;;;;8.60;2.87;;;;;;;29.97;37.51;99427.54;1746657;79;21136;-41
2021/06/23 00:15:21;;;;;;;10.35;2.35;;;;;;;30.02;37.41;99427.00;1779605;79;21466;-42
2021/06/23 00:17:49;;;;;;;7.60;2.77;;;;;;;30.05;37.35;99434.78;1772258;79;21012;-41
2021/06/23 00:20:16;;;;;;;8.00;2.77;;;;;;;30.07;37.29;99422.39;1761660;79;21031;-40
2021/06/23 00:22:43;;;;;;;9.33;2.98;;;;;;;30.10;37.22;99426.11;1770692;79;22004;-42
2021/06/23 00:25:12;;;;;;;13.72;3.00;;;;;;;30.12;37.19;99419.98;1760098;79;21073;-42
2021/06/23 00:27:39;;;;;;;7.20;2.77;;;;;;;30.14;37.19;99424.70;1750226;80;22304;-41
2021/06/23 00:30:07;;;;;;;7.72;2.70;;;;;;;30.15;37.17;99422.33;1723298;79;21050;-42
2021/06/23 00:32:35;;;;;;;6.92;2.90;;;;;;;30.15;37.17;99429.11;1751695;80;21045;-40
2021/06/23 00:35:05;;;;;;;10.88;2.55;;;;;;;30.15;37.17;99427.76;1771621;80;21039;-41
2021/06/23 00:37:32;;;;;;;10.70;3.00;;;;;;;30.17;37.11;99425.17;1751513;80;21078;-41
2021/06/23 00:39:58;;;;;;;5.50;2.30;;;;;;;30.18;37.05;99424.16;1756181;80;21066;-42
2021/06/23 00:42:25;;;;;;;11.10;2.95;;;;;;;30.20;36.97;99422.63;1739441;81;21557;-42
2021/06/23 00:44:52;;;;;;;7.83;2.30;;;;;;;30.20;36.91;99423.98;1760040;80;21176;-41
2021/06/23 00:47:19;;;;;;;11.55;2.35;;;;;;;30.10;36.84;99413.90;1778031;79;20988;-42
2021/06/23 00:49:46;;;;;;;8.53;2.50;;;;;;;29.85;37.11;99416.78;1723083;81;21104;-41
2021/06/23 00:52:14;;;;;;;7.22;2.17;;;;;;;29.60;37.49;99416.91;1800667;78;21646;-41
2021/06/23 00:54:51;;;;;;;10.20;2.55;;;;;;;29.37;37.91;99420.09;1736752;78;21102;-42
2021/06/23 00:57:20;;;;;;;12.23;2.83;;;;;;;29.12;38.42;99428.80;1831162;77;21085;-42
2021/06/23 00:59:52;;;;;;;8.33;2.40;;;;;;;28.90;38.79;99428.05;1796854;78;21069;-41
2021/06/23 01:02:20;;;;;;;10.05;2.47;;;;;;;28.72;39.08;99428.25;1784360;77;21118;-40
2021/06/23 01:04:51;;;;;;;10.85;2.60;;;;;;;28.53;39.44;99424.55;1816371;78;21827;-42
2021/06/23 01:07:18;;;;;;;12.07;2.47;;;;;;;28.42;39.68;99425.73;1816807;77;21497;-42
2021/06/23 01:09:46;;;;;;;6.58;2.12;;;;;;;28.34;39.89;99423.03;1817019;77;21022;-41
2021/06/23 01:12:25;;;;;;;10.75;3.00;;;;;;;28.27;40.04;99421.51;1800272;77;21023;-42
2021/06/23 01:14:55;;;;;;;9.95;2.90;;;;;;;28.19;40.25;99420.67;1815665;77;21030;-41
2021/06/23 01:17:23;;;;;;;18.40;3.33;;;;;;;28.05;40.56;99419.49;1812136;77;21468;-41
2021/06/23 01:19:51;;;;;;;10.82;2.60;;;;;;;27.92;40.83;99419.95;1803729;77;21065;-41
2021/06/23 01:22:19;;;;;;;20.68;3.22;;;;;;;27.83;41.05;99423.67;1812843;77;21109;-44
2021/06/23 01:24:46;;;;;;;8.88;2.83;;;;;;;27.74;41.28;99423.66;1807366;77;21028;-41
2021/06/23 01:27:13;;;;;;;9.83;2.70;;;;;;;27.66;41.57;99428.20;1793393;78;21203;-41
2021/06/23 01:29:41;;;;;;;13.55;3.02;;;;;;;27.63;41.66;99428.02;1804992;78;21012;-40
2021/06/23 01:32:12;;;;;;;6.75;2.95;;;;;;;27.66;41.65;99422.80;1790974;77;21514;-41
2021/06/23 01:34:38;;;;;;;8.68;2.30;;;;;;;27.70;41.56;99418.22;1784836;78;21568;-41
2021/06/23 01:37:05;;;;;;;10.40;2.65;;;;;;;27.75;41.48;99421.27;1813820;77;21464;-40
2021/06/23 01:39:32;;;;;;;9.25;3.05;;;;;;;27.79;41.41;99426.70;1803769;78;21015;-41
2021/06/23 01:41:59;;;;;;;5.90;2.15;;;;;;;27.84;41.29;99425.34;1814928;77;21134;-40
2021/06/23 01:44:28;;;;;;;6.35;2.27;;;;;;;27.90;41.09;99420.63;1805767;78;21527;-40
2021/06/23 01:46:57;;;;;;;7.78;2.33;;;;;;;28.00;40.91;99419.99;1801170;77;21095;-41
2021/06/23 01:49:26;;;;;;;7.60;2.42;;;;;;;28.11;40.74;99424.20;1797445;77;21010;-41
2021/06/23 01:51:53;;;;;;;5.85;2.00;;;;;;;28.13;40.63;99423.04;1793499;77;21074;-41
2021/06/23 01:54:21;;;;;;;10.43;2.95;;;;;;;28.17;40.53;99423.03;1788589;77;21192;-41
2021/06/23 01:56:48;;;;;;;5.45;2.65;;;;;;;28.24;40.38;99418.30;1802778;78;20991;-43
2021/06/23 01:59:15;;;;;;;24.35;3.98;;;;;;;28.29;40.32;99419.47;1799780;77;21493;-44
2021/06/23 02:02:08;;;;;;;19.45;3.00;;;;;;;28.30;40.52;99423.05;1798269;78;20991;-46
2021/06/23 02:05:02;;;;;;;10.20;2.75;;;;;;;28.39;40.45;99419.30;1746190;80;21019;-47
2021/06/23 02:08:07;;;;;;;13.35;2.75;;;;;;;28.47;40.23;99426.06;1743287;80;20987;-46
2021/06/23 02:11:16;;;;;;;19.75;3.37;;;;;;;28.56;39.97;99428.27;1697725;82;21048;-47
2021/06/23 02:14:14;;;;;;;9.23;2.80;;;;;;;28.63;39.77;99425.23;1750153;79;21054;-46
2021/06/23 02:16:59;;;;;;;10.80;2.47;;;;;;;28.70;39.64;99429.45;1742024;80;21016;-42
2021/06/23 02:19:27;;;;;;;9.83;2.30;;;;;;;28.75;39.56;99429.78;1722708;82;21490;-47
2021/06/23 02:21:55;;;;;;;6.53;2.35;;;;;;;28.80;39.50;99424.69;1755042;79;21146;-42
2021/06/23 02:24:22;;;;;;;10.53;2.25;;;;;;;28.86;39.38;99428.56;1731638;81;21518;-41
2021/06/23 02:26:51;;;;;;;7.22;2.45;;;;;;;28.93;39.22;99428.70;1767467;79;20955;-41
2021/06/23 02:29:18;;;;;;;7.85;2.20;;;;;;;29.02;38.98;99433.09;1766474;80;21047;-43
2021/06/23 02:31:44;;;;;;;9.13;2.60;;;;;;;29.09;38.78;99428.14;1783417;78;21556;-42
2021/06/23 02:34:14;;;;;;;7.95;2.08;;;;;;;29.18;38.65;99435.75;1756286;80;21628;-42
2021/06/23 02:36:43;;;;;;;7.15;2.35;;;;;;;29.26;38.42;99430.30;1774984;80;20999;-47
2021/06/23 02:39:10;;;;;;;14.83;2.83;;;;;;;29.37;38.19;99429.58;1768315;78;21022;-42
2021/06/23 02:41:37;;;;;;;6.62;1.98;;;;;;;29.48;38.16;99427.83;1778426;78;21005;-43
2021/06/23 02:44:04;;;;;;;9.00;2.67;;;;;;;29.60;38.13;99430.98;1773634;79;21514;-45
2021/06/23 02:46:32;;;;;;;14.25;2.30;;;;;;;29.73;37.74;99424.98;1756237;78;21831;-49
2021/06/23 02:49:01;;;;;;;6.28;2.10;;;;;;;29.86;37.47;99422.55;1788620;78;21063;-41
2021/06/23 02:51:38;;;;;;;12.07;2.60;;;;;;;29.99;37.45;99428.22;1769753;78;21126;-47
2021/06/23 02:54:06;;;;;;;8.75;2.22;;;;;;;30.12;37.21;99424.88;1774347;78;22639;-44
2021/06/23 02:56:41;;;;;;;13.03;2.10;;;;;;;30.25;36.97;99432.42;1746901;79;21064;-45
2021/06/23 02:59:08;;;;;;;5.80;1.90;;;;;;;30.40;36.70;99437.09;1736743;80;21094;-44
2021/06/23 03:01:35;;;;;;;6.60;2.70;;;;;;;30.53;36.60;99431.84;1773156;78;20998;-46
2021/06/23 03:04:07;;;;;;;9.95;2.65;;;;;;;30.68;36.43;99430.02;1764163;79;21026;-44
2021/06/23 03:06:36;;;;;;;6.05;2.08;;;;;;;30.82;36.53;99429.70;1775598;78;21318;-44
2021/06/23 03:09:05;;;;;;;8.43;1.75;;;;;;;30.96;36.35;99429.39;1792325;78;21022;-46
2021/06/23 03:11:41;;;;;;;11.85;2.77;;;;;;;31.14;36.04;99434.98;1765198;78;21137;-49
2021/06/23 03:14:12;;;;;;;6.55;1.98;;;;;;;31.36;35.53;99434.00;1755569;80;21457;-47
2021/06/23 03:16:41;;;;;;;7.60;2.00;;;;;;;31.57;35.09;99420.16;1794320;77;21061;-45
2021/06/23 03:19:14;;;;;;;6.45;1.98;;;;;;;31.78;34.70;99425.62;1778435;78;21042;-45
2021/06/23 03:21:40;;;;;;;6.55;1.67;;;;;;;31.99;34.44;99417.14;1780207;77;21082;-43
2021/06/23 03:24:09;;;;;;;5.30;1.72;;;;;;;32.18;34.08;99423.33;1778055;78;21216;-46
2021/06/23 03:26:36;;;;;;;8.35;1.90;;;;;;;32.37;33.89;99415.52;1763744;78;20991;-46
2021/06/23 03:29:28;;;;;;;12.80;2.08;;;;;;;32.58;33.73;99420.92;1786092;78;21496;-41
2021/06/23 03:31:56;;;;;;;16.07;2.40;;;;;;;32.81;33.55;99423.92;1777772;78;21067;-42
2021/06/23 03:34:24;;;;;;;9.88;3.20;;;;;;;33.07;33.14;99423.74;1775513;78;21067;-42
2021/06/23 03:36:57;;;;;;;8.88;2.67;;;;;;;33.25;32.73;99429.52;1776897;77;21516;-44
2021/06/23 03:39:24;;;;;;;15.30;2.62;;;;;;;33.24;32.56;99425.14;1784655;78;21480;-43
2021/06/23 03:41:53;;;;;;;11.08;2.40;;;;;;;33.15;32.94;99429.06;1753054;79;21084;-42
2021/06/23 03:44:21;;;;;;;8.95;2.37;;;;;;;33.09;33.01;99432.59;1751751;79;20995;-42
2021/06/23 03:46:49;;;;;;;9.23;2.50;;;;;;;33.08;32.96;99431.72;1749549;79;21044;-43
2021/06/23 03:49:17;;;;;;;7.97;1.90;;;;;;;33.09;32.90;99443.49;1743662;79;21165;-42
2021/06/23 03:51:45;;;;;;;10.20;2.40;;;;;;;33.11;32.79;99440.03;1766693;79;21078;-43
2021/06/23 03:54:13;;;;;;;4.50;2.20;;;;;;;33.12;32.69;99441.73;1799458;79;21020;-42
2021/06/23 03:56:42;;;;;;;3.92;1.90;;;;;;;33.18;32.61;99446.91;1763233;80;21027;-43
2021/06/23 03:59:10;;;;;;;6.33;2.33;;;;;;;33.24;32.42;99445.59;1750963;78;21034;-42
2021/06/23 04:01:37;;;;;;;6.60;2.08;;;;;;;33.28;32.34;99444.13;1786270;78;21200;-43
2021/06/23 04:04:06;;;;;;;6.08;1.90;;;;;;;33.31;32.23;99441.00;1781127;78;21083;-42
2021/06/23 04:06:44;;;;;;;4.47;1.55;;;;;;;33.33;32.16;99436.70;1792742;78;21542;-43
2021/06/23 04:09:16;;;;;;;5.15;2.02;;;;;;;33.36;32.09;99434.94;1766472;78;21042;-43
2021/06/23 04:11:45;;;;;;;6.20;1.62;;;;;;;33.37;32.03;99430.31;1790587;78;21054;-42
2021/06/23 04:14:13;;;;;;;7.53;2.20;;;;;;;33.36;32.02;99430.02;1763696;78;21908;-42
2021/06/23 04:16:43;;;;;;;9.43;2.20;;;;;;;33.39;31.94;99429.58;1777212;79;21054;-42
2021/06/23 04:19:11;;;;;;;3.98;1.62;;;;;;;33.41;31.90;99426.16;1768868;77;21050;-43
2021/06/23 04:21:40;;;;;;;12.50;1.75;;;;;;;33.42;31.90;99428.68;1788841;79;21464;-43
2021/06/23 04:24:11;;;;;;;9.13;1.85;;;;;;;33.39;31.97;99429.58;1780182;78;22152;-43
2021/06/23 04:26:43;;;;;;;7.10;1.60;;;;;;;33.34;32.08;99432.95;1779804;79;22221;-42
2021/06/23 04:29:12;;;;;;;6.33;1.95;;;;;;;33.29;32.17;99430.82;1748377;80;21537;-43
2021/06/23 04:31:40;;;;;;;10.38;1.75;;;;;;;33.29;32.21;99428.09;1776619;78;22207;-42
2021/06/23 04:34:07;;;;;;;4.00;1.75;;;;;;;33.26;32.24;99434.48;1773352;77;21066;-43
2021/06/23 04:36:35;;;;;;;7.55;1.60;;;;;;;33.21;32.30;99432.35;1776831;79;21098;-42
2021/06/23 04:39:02;;;;;;;8.28;1.85;;;;;;;33.11;32.36;99425.04;1773247;77;21153;-43
2021/06/23 04:41:31;;;;;;;7.05;1.50;;;;;;;32.93;32.52;99419.62;1773878;78;21051;-42
2021/06/23 04:44:02;;;;;;;5.78;1.65;;;;;;;32.77;32.39;99416.67;1775389;77;21046;-43
2021/06/23 04:46:32;;;;;;;14.30;1.50;;;;;;;32.59;32.46;99419.03;1743152;80;21592;-44
2021/06/23 04:49:00;;;;;;;5.17;1.17;;;;;;;32.48;32.58;99419.08;1727882;79;21050;-42
2021/06/23 04:51:38;;;;;;;3.58;1.55;;;;;;;32.38;32.67;99417.19;1696969;83;21144;-43
2021/06/23 04:54:06;;;;;;;10.10;1.42;;;;;;;32.26;32.85;99419.60;1764564;78;21015;-44
2021/06/23 04:56:35;;;;;;;8.83;2.20;;;;;;;32.15;33.01;99411.47;1725937;79;21074;-42
2021/06/23 04:59:03;;;;;;;7.70;1.77;;;;;;;32.08;33.07;99416.02;1739490;79;21176;-42
2021/06/23 05:01:31;;;;;;;4.67;1.40;;;;;;;32.01;33.12;99417.78;1714861;80;21016;-41
2021/06/23 05:04:00;;;;;;;6.58;1.52;;;;;;;31.94;33.12;99419.10;1727977;80;21149;-41
2021/06/23 05:06:29;;;;;;;8.40;1.52;;;;;;;31.85;33.15;99418.36;1732398;80;21347;-42
2021/06/23 05:08:59;;;;;;;6.35;1.35;;;;;;;31.80;33.31;99428.98;1707766;80;21118;-42
2021/06/23 05:11:27;;;;;;;4.33;1.60;;;;;;;31.73;33.54;99430.80;1744414;80;21052;-42
2021/06/23 05:13:58;;;;;;;8.00;1.80;;;;;;;31.68;33.59;99427.82;1736786;80;21042;-41
2021/06/23 05:16:24;;;;;;;6.22;1.98;;;;;;;31.60;33.60;99436.09;1741764;79;21156;-42
2021/06/23 05:18:52;;;;;;;7.62;1.67;;;;;;;31.54;33.65;99436.84;1739213;79;21615;-42
2021/06/23 05:21:21;;;;;;;9.50;1.67;;;;;;;31.50;33.70;99433.64;1728014;80;21058;-43
2021/06/23 05:23:50;;;;;;;7.03;1.62;;;;;;;31.47;33.70;99440.31;1764223;78;21089;-43
2021/06/23 05:26:18;;;;;;;7.55;1.80;;;;;;;31.43;33.78;99444.44;1771628;78;21724;-44
2021/06/23 05:28:46;;;;;;;7.62;1.45;;;;;;;31.40;33.92;99442.09;1761849;78;21263;-43
2021/06/23 05:31:14;;;;;;;10.08;1.65;;;;;;;31.36;34.06;99435.36;1746425;79;21086;-42
2021/06/23 05:33:41;;;;;;;6.75;1.70;;;;;;;31.33;34.18;99437.09;1768395;78;21494;-42
2021/06/23 05:36:08;;;;;;;7.85;2.10;;;;;;;31.29;34.32;99431.73;1756803;78;23184;-42
2021/06/23 05:38:34;;;;;;;12.15;2.60;;;;;;;31.26;34.61;99429.37;1774590;78;21632;-44
2021/06/23 05:41:02;;;;;;;15.18;7.37;;;;;;;31.21;35.16;99434.55;1787233;78;22929;-47
2021/06/23 05:43:28;;;;;;;15.08;6.33;;;;;;;31.14;35.51;99428.19;1758593;77;21069;-49
2021/06/23 05:45:55;;;;;;;8.90;3.12;;;;;;;31.13;35.24;99426.48;1784162;79;21069;-54
2021/06/23 05:48:22;;;;;;;6.22;2.20;;;;;;;31.10;34.96;99421.77;1736845;79;21536;-45
2021/06/23 05:50:51;;;;;;;6.37;1.85;;;;;;;31.08;34.71;99422.45;1768613;77;21629;-43
2021/06/23 05:53:18;;;;;;;8.73;1.92;;;;;;;31.04;34.85;99417.08;1788569;78;21045;-49
2021/06/23 05:55:45;;;;;;;12.82;2.22;;;;;;;31.02;34.93;99412.84;1794737;78;21081;-47
2021/06/23 05:58:12;;;;;;;8.65;1.55;;;;;;;30.99;35.00;99402.38;1761463;78;21085;-47
2021/06/23 06:00:39;;;;;;;7.53;1.70;;;;;;;30.98;35.07;99402.88;1771822;78;21062;-48
2021/06/23 06:03:06;;;;;;;5.83;1.77;;;;;;;30.98;35.37;99402.88;1777153;77;21016;-44
2021/06/23 06:05:34;;;;;;;8.98;1.90;;;;;;;30.97;35.38;99397.63;1782427;78;21139;-45
2021/06/23 06:08:02;;;;;;;9.60;2.20;;;;;;;30.92;35.25;99394.11;1786635;79;20941;-46
2021/06/23 06:10:29;;;;;;;6.05;1.87;;;;;;;30.90;35.41;99394.78;1794148;77;21461;-46
2021/06/23 06:12:56;;;;;;;9.83;1.85;;;;;;;30.88;35.48;99390.06;1743544;80;21026;-45
2021/06/23 06:15:24;;;;;;;11.20;1.82;;;;;;;30.86;35.62;99393.48;1781550;78;20960;-43
2021/06/23 06:17:50;;;;;;;8.68;2.27;;;;;;;30.83;35.74;99385.71;1781705;78;21464;-42
2021/06/23 06:20:17;;;;;;;4.70;1.67;;;;;;;30.75;35.97;99390.22;1766538;79;21086;-46
2021/06/23 06:22:44;;;;;;;4.65;2.02;;;;;;;30.68;36.37;99385.70;1768381;79;21030;-44
2021/06/23 06:25:12;;;;;;;10.38;1.87;;;;;;;30.64;36.66;99389.84;1797566;78;21522;-46
2021/06/23 06:27:39;;;;;;;9.45;1.82;;;;;;;30.60;36.79;99381.22;1777492;78;21121;-45
2021/06/23 06:30:08;;;;;;;17.70;1.90;;;;;;;30.59;36.96;99375.45;1781100;78;21070;-45
2021/06/23 06:32:34;;;;;;;6.45;1.80;;;;;;;30.57;37.15;99378.88;1775984;78;21055;-48
2021/06/23 06:35:01;;;;;;;8.45;1.87;;;;;;;30.58;37.33;99374.28;1780304;79;21500;-48
2021/06/23 06:37:27;;;;;;;8.63;1.90;;;;;;;30.61;37.42;99376.10;1769547;79;21054;-48
2021/06/23 06:39:55;;;;;;;9.40;2.30;;;;;;;30.62;37.52;99379.69;1754010;79;21042;-49
2021/06/23 06:42:22;;;;;;;4.28;1.80;;;;;;;30.64;37.66;99375.73;1749605;80;21097;-53
2021/06/23 06:44:55;;;;;;;7.08;2.35;;;;;;;30.67;37.72;99382.16;1753596;80;20998;-55
2021/06/23 06:47:22;;;;;;;4.20;1.62;;;;;;;30.68;37.80;99375.70;1732338;80;21696;-56
2021/06/23 06:49:49;;;;;;;6.45;1.75;;;;;;;30.71;37.85;99372.59;1749429;79;21014;-49
2021/06/23 06:52:16;;;;;;;7.47;1.72;;;;;;;30.74;37.84;99364.08;1752673;79;21041;-44
2021/06/23 06:54:42;;;;;;;6.28;1.70;;;;;;;30.79;37.83;99370.31;1753031;78;21126;-43
2021/06/23 06:57:11;;;;;;;7.10;1.87;;;;;;;30.84;37.64;99367.87;1761811;78;21097;-44
2021/06/23 06:59:37;;;;;;;8.10;1.62;;;;;;;30.85;37.52;99376.36;1761306;78;21580;-43
2021/06/23 07:02:05;;;;;;;8.80;1.82;;;;;;;30.86;37.49;99370.40;1765948;78;21557;-44
2021/06/23 07:04:32;;;;;;;5.20;1.70;;;;;;;30.86;37.49;99377.19;1749200;80;21077;-44
2021/06/23 07:06:59;;;;;;;9.90;2.08;;;;;;;30.86;37.49;99382.63;1755174;79;22372;-46
2021/06/23 07:09:26;;;;;;;6.90;1.60;;;;;;;30.87;37.23;99378.89;1762015;79;21086;-45
2021/06/23 07:11:53;;;;;;;5.90;1.67;;;;;;;30.85;37.39;99375.49;1766749;78;21097;-45
2021/06/23 07:14:22;;;;;;;4.30;1.65;;;;;;;30.87;37.47;99376.17;1762501;79;21053;-41
2021/06/23 07:16:49;;;;;;;10.88;2.10;;;;;;;30.87;37.49;99374.81;1755107;81;21075;-46
2021/06/23 07:19:16;;;;;;;8.65;1.85;;;;;;;30.89;37.60;99384.97;1776312;79;21236;-46
2021/06/23 07:21:44;;;;;;;3.92;1.80;;;;;;;30.92;37.77;99392.75;1767353;79;21102;-45
2021/06/23 07:24:16;;;;;;;9.35;1.70;;;;;;;30.94;37.87;99396.14;1757373;79;22244;-42
2021/06/23 07:26:42;;;;;;;11.78;2.12;;;;;;;30.96;37.83;99391.36;1765756;79;20983;-46
2021/06/23 07:29:10;;;;;;;3.75;1.82;;;;;;;30.98;37.90;99401.52;1769233;78;21071;-46
2021/06/23 07:31:55;;;;;;;9.25;2.60;;;;;;;31.00;38.01;99406.27;1755739;79;21141;-43
2021/06/23 07:34:34;;;;;;;7.60;1.75;;;;;;;31.02;38.13;99397.91;1772544;79;21034;-44
2021/06/23 07:36:51;;;;;;;8.45;2.00;;;;;;;31.04;38.18;99409.45;1759986;80;21107;-44
2021/06/23 07:39:18;;;;;;;7.85;2.22;;;;;;;31.04;38.24;99402.12;1749756;80;20987;-44
2021/06/23 07:41:47;;;;;;;8.10;2.05;;;;;;;31.07;38.32;99396.32;1811824;78;21066;-54
2021/06/23 07:44:18;;;;;;;9.25;2.10;;;;;;;31.08;38.28;99395.27;1813352;77;21163;-40
2021/06/23 07:46:50;;;;;;;9.60;2.35;;;;;;;31.05;38.28;99387.52;1811163;77;21050;-44
2021/06/23 07:49:19;;;;;;;10.03;2.40;;;;;;;31.01;38.27;99387.55;1797916;78;21017;-42
2021/06/23 07:51:55;;;;;;;7.85;2.15;;;;;;;30.97;38.30;99384.91;1781940;78;21003;-44
2021/06/23 08:10:09;;;;;;;6.78;2.05;;;;;;;30.77;38.94;99388.67;1807651;78;21742;-44
2021/06/23 08:12:39;;;;;;;4.97;1.92;;;;;;;30.77;39.08;99394.62;1797159;78;21029;-45
2021/06/23 08:14:58;;;;;;;6.85;2.40;;;;;;;30.77;39.23;99394.11;1793866;78;21454;-42
2021/06/23 08:17:24;;;;;;;9.10;2.22;;;;;;;30.79;39.29;99396.64;1762505;80;20997;-42
2021/06/23 08:19:51;;;;;;;5.65;1.95;;;;;;;30.77;39.37;99392.75;1767825;80;21091;-44
2021/06/23 08:22:17;;;;;;;7.58;1.87;;;;;;;30.78;39.56;99404.45;1787044;78;21093;-45
2021/06/23 08:24:44;;;;;;;11.85;2.10;;;;;;;30.79;39.76;99393.92;1811341;77;21077;-43
2021/06/23 08:27:11;;;;;;;10.20;2.35;;;;;;;30.81;39.81;99400.83;1799911;78;21520;-43
2021/06/23 08:29:38;;;;;;;5.87;2.02;;;;;;;30.82;39.77;99401.17;1804832;77;21072;-42
2021/06/23 08:32:07;;;;;;;8.78;2.45;;;;;;;30.83;39.66;99402.00;1819797;78;21025;-43
2021/06/23 08:34:33;;;;;;;6.78;2.10;;;;;;;30.82;39.67;99405.77;1792645;77;21138;-43
2021/06/23 08:37:01;;;;;;;5.83;2.00;;;;;;;30.82;39.61;99401.70;1779092;79;21527;-48
2021/06/23 08:39:27;;;;;;;8.93;2.40;;;;;;;30.83;39.73;99404.72;1779027;78;21066;-43
2021/06/23 08:41:54;;;;;;;7.08;1.95;;;;;;;30.83;39.97;99404.72;1752354;79;21976;-46
2021/06/23 08:44:22;;;;;;;11.33;2.45;;;;;;;30.84;40.08;99405.06;1763101;79;21086;-41
2021/06/23 08:46:50;;;;;;;10.00;2.15;;;;;;;30.86;40.21;99403.00;1774497;78;21158;-45
2021/06/23 08:49:18;;;;;;;5.90;1.95;;;;;;;30.89;40.39;99408.06;1774755;79;21069;-44
2021/06/23 08:51:45;;;;;;;7.85;2.10;;;;;;;30.91;40.35;99406.83;1773791;78;21539;-48
2021/06/23 08:54:13;;;;;;;9.45;2.22;;;;;;;30.93;40.37;99400.71;1774371;77;21082;-46
2021/06/23 08:56:41;;;;;;;12.53;2.00;;;;;;;30.97;40.48;99400.34;1734705;79;21132;-43
2021/06/23 08:59:08;;;;;;;8.28;2.15;;;;;;;31.00;40.65;99397.25;1773371;78;21144;-44
2021/06/23 09:01:35;;;;;;;17.37;2.10;;;;;;;31.01;40.61;99395.70;1770407;78;22215;-43
2021/06/23 09:04:08;;;;;;;15.80;2.02;;;;;;;31.05;40.61;99396.17;1741149;78;21060;-46
2021/06/23 09:06:45;;;;;;;9.38;2.17;;;;;;;31.08;40.20;99380.85;1767582;79;21042;-44
2021/06/23 09:09:21;;;;;;;6.20;1.98;;;;;;;31.10;39.97;99386.44;1769732;77;21580;-44
2021/06/23 09:11:54;;;;;;;5.70;2.05;;;;;;;31.13;39.73;99384.37;1763045;77;21138;-43
2021/06/23 09:14:22;;;;;;;4.42;1.85;;;;;;;31.14;39.45;99382.82;1748996;78;21018;-45
2021/06/23 09:17:08;;;;;;;5.72;1.80;;;;;;;31.18;39.45;99380.56;1774375;77;21011;-44
2021/06/23 09:19:45;;;;;;;6.25;1.85;;;;;;;31.18;39.30;99383.28;1751103;78;21433;-44
2021/06/23 09:22:45;;;;;;;6.60;2.20;;;;;;;31.20;38.96;99383.40;1780283;78;22226;-44
2021/06/23 09:25:19;;;;;;;10.10;1.98;;;;;;;31.20;38.58;99384.76;1764103;78;21101;-45
2021/06/23 09:27:53;;;;;;;5.47;1.80;;;;;;;31.21;38.45;99392.42;1784425;78;21129;-45
2021/06/23 09:30:37;;;;;;;7.77;1.77;;;;;;;31.22;38.37;99390.00;1786308;78;20986;-43
2021/06/23 09:33:10;;;;;;;7.58;2.00;;;;;;;31.22;38.63;99388.64;1781079;78;21014;-41
2021/06/23 09:35:38;;;;;;;10.53;2.15;;;;;;;31.25;38.63;99384.20;1799683;77;21043;-44
2021/06/23 09:38:07;;;;;;;8.68;2.20;;;;;;;31.25;38.71;99389.14;1793968;77;20964;-44
2021/06/23 09:40:43;;;;;;;7.37;1.85;;;;;;;31.27;38.67;99387.06;1776626;79;21047;-44
2021/06/23 09:43:10;;;;;;;14.15;2.30;;;;;;;31.31;38.77;99399.75;1806048;78;21059;-44
2021/06/23 09:45:37;;;;;;;11.25;2.10;;;;;;;31.35;38.76;99405.64;1798280;78;21082;-46
2021/06/23 09:48:06;;;;;;;11.85;2.30;;;;;;;31.36;38.76;99405.45;1764262;79;21047;-43
2021/06/23 09:50:35;;;;;;;14.60;2.33;;;;;;;31.38;38.93;99411.54;1779147;78;21111;-44
2021/06/23 09:53:09;;;;;;;12.40;3.05;;;;;;;31.40;39.17;99412.71;1789310;78;21031;-45
2021/06/23 09:55:39;;;;;;;8.15;1.92;;;;;;;31.42;39.19;99417.44;1768344;78;20983;-44
2021/06/23 09:58:10;;;;;;;19.52;2.60;;;;;;;31.44;39.31;99416.23;1764889;79;21038;-42
2021/06/23 10:01:02;;;;;;;13.88;2.40;;;;;;;31.46;39.33;99412.79;1777300;78;20945;-44
2021/06/23 10:03:34;;;;;;;8.10;2.17;;;;;;;31.47;39.19;99412.27;1795751;77;21124;-43
2021/06/23 10:06:27;;;;;;;6.90;2.52;;;;;;;31.48;38.62;99405.28;1802486;78;20927;-44
2021/06/23 10:09:19;;;;;;;5.78;2.52;;;;;;;31.48;38.52;99406.64;1799133;78;21009;-44
2021/06/23 10:11:44;;;;;;;10.88;2.98;;;;;;;31.51;38.40;99403.27;1801609;78;21090;-44
2021/06/23 10:14:11;;;;;;;12.25;2.00;;;;;;;31.48;38.41;99409.36;1802792;78;21024;-43
2021/06/23 10:16:39;;;;;;;11.50;2.47;;;;;;;31.48;38.34;99412.08;1790631;78;21490;-41
2021/06/23 10:19:07;;;;;;;12.68;2.55;;;;;;;31.51;38.52;99410.06;1778695;78;21038;-44
2021/06/23 10:21:35;;;;;;;7.87;2.15;;;;;;;31.51;38.63;99412.78;1785021;77;21055;-42
2021/06/23 10:24:04;;;;;;;10.60;2.50;;;;;;;31.52;38.77;99411.73;1810232;78;20999;-42
2021/06/23 10:26:30;;;;;;;12.93;3.30;;;;;;;31.54;38.82;99406.94;1807756;78;21055;-41
2021/06/23 10:28:58;;;;;;;12.10;2.20;;;;;;;31.55;38.89;99408.11;1810168;78;21137;-42
2021/06/23 10:31:27;;;;;;;9.78;2.33;;;;;;;31.56;38.72;99410.33;1792565;77;21019;-41
2021/06/23 10:33:54;;;;;;;9.65;2.60;;;;;;;31.57;38.31;99405.20;1804519;77;21003;-42
2021/06/23 10:36:24;;;;;;;13.93;3.37;;;;;;;31.60;38.18;99410.25;1781367;78;21054;-41
2021/06/23 10:38:50;;;;;;;15.35;2.42;;;;;;;31.60;38.09;99406.17;1782557;78;21635;-44
2021/06/23 10:41:17;;;;;;;12.53;2.60;;;;;;;31.61;37.68;99398.36;1776964;78;21911;-42
2021/06/23 10:43:43;;;;;;;21.40;2.95;;;;;;;31.63;37.67;99403.08;1816514;77;21036;-40
2021/06/23 10:46:11;;;;;;;15.23;2.55;;;;;;;31.64;37.65;99402.89;1817721;78;21290;-41
2021/06/23 10:48:57;;;;;;;10.30;2.37;;;;;;;31.65;37.67;99408.63;1815361;78;21019;-42
2021/06/23 10:51:28;;;;;;;12.00;2.70;;;;;;;31.66;37.69;99406.77;1805406;77;21499;-43
2021/06/23 10:53:55;;;;;;;16.87;2.87;;;;;;;31.67;37.95;99411.16;1806688;78;21155;-43
2021/06/23 10:56:45;;;;;;;9.68;2.75;;;;;;;31.66;38.06;99408.97;1779804;78;20962;-43
2021/06/23 10:59:34;;;;;;;11.18;2.98;;;;;;;31.69;38.16;99403.67;1808860;77;20979;-42
2021/06/23 11:02:11;;;;;;;15.10;2.95;;;;;;;31.66;38.27;99399.98;1816444;78;21070;-42
2021/06/23 11:05:04;;;;;;;22.30;2.92;;;;;;;31.68;38.31;99406.06;1800786;77;21089;-44
2021/06/23 11:07:38;;;;;;;14.60;3.27;;;;;;;31.70;37.91;99405.34;1815460;78;21054;-42
2021/06/23 11:10:27;;;;;;;18.07;2.83;;;;;;;31.72;37.50;99405.98;1817040;77;21089;-43
2021/06/23 11:13:01;;;;;;;12.93;2.83;;;;;;;31.74;37.14;99409.88;1812680;77;21031;-42
2021/06/23 11:15:35;;;;;;;16.30;3.12;;;;;;;31.76;37.49;99411.38;1778407;78;21045;-42
2021/06/23 11:18:34;;;;;;;16.42;3.62;;;;;;;31.75;37.71;99415.13;1808485;77;21030;-42
2021/06/23 11:21:20;;;;;;;13.15;3.42;;;;;;;31.74;37.87;99409.38;1812635;78;21167;-43
2021/06/23 11:24:03;;;;;;;19.48;5.05;;;;;;;31.75;37.87;99409.69;1818237;77;21044;-42
2021/06/23 11:26:38;;;;;;;28.02;5.17;;;;;;;31.77;37.36;99404.88;1781125;77;21093;-42
2021/06/23 11:29:20;;;;;;;20.62;4.00;;;;;;;31.79;36.56;99411.00;1776759;78;21062;-40
2021/06/23 11:31:54;;;;;;;17.85;4.25;;;;;;;31.81;36.99;99417.08;1777547;78;22211;-42
2021/06/23 11:34:43;;;;;;;31.75;5.12;;;;;;;31.79;37.18;99416.44;1782244;78;21168;-41
2021/06/23 11:37:17;;;;;;;32.98;5.12;;;;;;;31.79;37.28;99425.96;1763449;79;21040;-43
2021/06/23 11:39:43;;;;;;;25.97;4.50;;;;;;;31.79;36.50;99421.88;1782839;78;21038;-43
2021/06/23 11:42:12;;;;;;;27.60;5.67;;;;;;;31.82;35.69;99423.35;1782141;78;21923;-42
2021/06/23 11:44:39;;;;;;;27.10;4.50;;;;;;;31.83;35.89;99420.44;1751624;79;21085;-45
2021/06/23 11:47:07;;;;;;;21.55;4.72;;;;;;;31.84;35.79;99426.22;1784028;78;21149;-45
2021/06/23 11:49:35;;;;;;;28.30;4.62;;;;;;;31.85;36.28;99429.25;1789248;78;21528;-43
2021/06/23 11:52:04;;;;;;;22.05;4.95;;;;;;;31.87;36.58;99426.34;1783311;77;21081;-43
2021/06/23 11:54:31;;;;;;;35.15;5.15;;;;;;;31.91;36.50;99427.65;1787617;79;21030;-44
2021/06/23 11:56:58;;;;;;;37.30;5.17;;;;;;;31.98;36.06;99419.02;1783102;77;21057;-44
2021/06/23 11:59:25;;;;;;;27.65;4.97;;;;;;;32.05;35.98;99419.09;1770183;79;21133;-44